Altus, Arkansas
Current Conditions -  °F | °C
As of 3:53 AM on Saturday 20 Dec 2014 (Local Time) from KFSM Reporting Station
Haze Haze  
Wind Chill: 39°   Ceiling: 700
Heat Index: 42°   Visibility: 6mi
Dew Point: 39°   Wind: 5mph
Humidity: 89%   Direction: 80°E
Pressure: 30.22"   Gusts: NA
Location:  35.45°N, 93.76°W
Report Text: KFSM 200953Z AUTO 08004KT 6SM BR OVC007 06/04 A3022 RMK AO2 SLP235 T00560039
Loading
Personal Weather Stations






























Interactive Weather Map New forecast layout! Learn more

10-Day Weather Forecast

Advertisements
Track Severe Weather on mobile